JDI69 LPPR-LPPT
Flight info
| Callsign | JDI69 |
|---|---|
| Flight time | 0h 36m |
| Altitude | 35000 |
| Route | MANIK DCT ABRIL DCT XAMAX |
| Aircraft | MD11/H-SDE1E2E3FGHIJ2J3J4J5M1RWXY/LB1D1 |
Departure
| Time | 2026-05-05 20:51 |
|---|---|
| Airport | Francisco de Sá Carneiro Airport (LPPR) |
Arrival
| Time | 2026-05-05 21:28 |
|---|---|
| Airport | Lisbon Humberto Delgado Airport (LPPT) |
| Time | Latitude | Longitude | Altitude | Speed | Heading |
|---|---|---|---|---|---|
| 2026-05-05 20:31 | 41.23750 | -8.68492 | 229 ft | 0 kts | 259° |
| 2026-05-05 20:39 | 41.23753 | -8.68476 | 223 ft | 2 kts | 258° |
| 2026-05-05 20:39 | 41.23756 | -8.68457 | 226 ft | 2 kts | 258° |
| 2026-05-05 20:39 | 41.23759 | -8.68437 | 223 ft | 2 kts | 258° |
| 2026-05-05 20:40 | 41.23762 | -8.68418 | 226 ft | 2 kts | 236° |
| 2026-05-05 20:40 | 41.23771 | -8.68402 | 227 ft | 2 kts | 204° |
| 2026-05-05 20:40 | 41.23786 | -8.68396 | 226 ft | 2 kts | 171° |
| 2026-05-05 20:40 | 41.23790 | -8.68397 | 226 ft | 0 kts | 170° |
| 2026-05-05 20:44 | 41.23789 | -8.68397 | 226 ft | 1 kts | 170° |
| 2026-05-05 20:45 | 41.23734 | -8.68362 | 226 ft | 8 kts | 135° |
| 2026-05-05 20:45 | 41.23717 | -8.68294 | 226 ft | 6 kts | 91° |
| 2026-05-05 20:45 | 41.23718 | -8.68254 | 230 ft | 4 kts | 90° |
| 2026-05-05 20:46 | 41.23718 | -8.68204 | 228 ft | 7 kts | 90° |
| 2026-05-05 20:46 | 41.23716 | -8.68130 | 231 ft | 7 kts | 98° |
| 2026-05-05 20:46 | 41.23682 | -8.68081 | 237 ft | 10 kts | 152° |
| 2026-05-05 20:46 | 41.23607 | -8.68056 | 237 ft | 10 kts | 169° |
| 2026-05-05 20:47 | 41.23549 | -8.68040 | 237 ft | 7 kts | 169° |
| 2026-05-05 20:47 | 41.23514 | -8.68031 | 237 ft | 4 kts | 169° |
| 2026-05-05 20:47 | 41.23495 | -8.68026 | 237 ft | 3 kts | 169° |
| 2026-05-05 20:47 | 41.23482 | -8.68022 | 238 ft | 1 kts | 167° |
| 2026-05-05 20:48 | 41.23471 | -8.68019 | 238 ft | 3 kts | 167° |
| 2026-05-05 20:48 | 41.23443 | -8.68004 | 239 ft | 6 kts | 158° |
| 2026-05-05 20:48 | 41.23408 | -8.67976 | 239 ft | 7 kts | 145° |
| 2026-05-05 20:48 | 41.23370 | -8.67924 | 241 ft | 8 kts | 124° |
| 2026-05-05 20:49 | 41.23335 | -8.67856 | 243 ft | 8 kts | 124° |
| 2026-05-05 20:49 | 41.23321 | -8.67801 | 244 ft | 6 kts | 92° |
| 2026-05-05 20:49 | 41.23340 | -8.67757 | 245 ft | 6 kts | 36° |
| 2026-05-05 20:49 | 41.23387 | -8.67755 | 245 ft | 8 kts | 352° |
| 2026-05-05 20:50 | 41.23403 | -8.67759 | 245 ft | 3 kts | 351° |
| 2026-05-05 20:50 | 41.23563 | -8.67800 | 241 ft | 47 kts | 348° |
| 2026-05-05 20:50 | 41.24031 | -8.67922 | 225 ft | 93 kts | 349° |
| 2026-05-05 20:50 | 41.24906 | -8.68156 | 211 ft | 160 kts | 349° |
| 2026-05-05 20:51 | 41.26050 | -8.68455 | 702 ft | 175 kts | 349° |
| 2026-05-05 20:51 | 41.27303 | -8.68825 | 1462 ft | 189 kts | 346° |
| 2026-05-05 20:51 | 41.28600 | -8.69228 | 2182 ft | 201 kts | 346° |
| 2026-05-05 20:51 | 41.29990 | -8.69665 | 2908 ft | 207 kts | 347° |
| 2026-05-05 20:52 | 41.31412 | -8.70097 | 3643 ft | 214 kts | 347° |
| 2026-05-05 20:52 | 41.32932 | -8.70530 | 4094 ft | 233 kts | 348° |
| 2026-05-05 20:52 | 41.34569 | -8.70964 | 4650 ft | 248 kts | 348° |
| 2026-05-05 20:52 | 41.36290 | -8.71397 | 5511 ft | 255 kts | 349° |
| 2026-05-05 20:53 | 41.38060 | -8.71849 | 6420 ft | 262 kts | 347° |
| 2026-05-05 20:53 | 41.39727 | -8.72732 | 7570 ft | 255 kts | 328° |
| 2026-05-05 20:53 | 41.40995 | -8.74354 | 8648 ft | 255 kts | 304° |
| 2026-05-05 20:53 | 41.41621 | -8.76599 | 9501 ft | 266 kts | 278° |
| 2026-05-05 20:54 | 41.41466 | -8.79087 | 10282 ft | 274 kts | 263° |
| 2026-05-05 20:54 | 41.41091 | -8.81646 | 10737 ft | 293 kts | 262° |
| 2026-05-05 20:54 | 41.40676 | -8.84398 | 10878 ft | 322 kts | 262° |
| 2026-05-05 20:54 | 41.40060 | -8.87408 | 11038 ft | 352 kts | 251° |
| 2026-05-05 20:55 | 41.38777 | -8.90234 | 11768 ft | 364 kts | 231° |
| 2026-05-05 20:55 | 41.36793 | -8.92376 | 12596 ft | 375 kts | 211° |
| 2026-05-05 20:55 | 41.34314 | -8.93568 | 13404 ft | 385 kts | 192° |
| 2026-05-05 20:55 | 41.31612 | -8.93648 | 14148 ft | 394 kts | 173° |
| 2026-05-05 20:56 | 41.28945 | -8.92724 | 14797 ft | 401 kts | 161° |
| 2026-05-05 20:56 | 41.26351 | -8.91343 | 15445 ft | 406 kts | 158° |
| 2026-05-05 20:56 | 41.23750 | -8.89823 | 16103 ft | 410 kts | 158° |
| 2026-05-05 20:56 | 41.21120 | -8.88299 | 16745 ft | 415 kts | 159° |
| 2026-05-05 20:57 | 41.18456 | -8.86808 | 17404 ft | 418 kts | 160° |
| 2026-05-05 20:57 | 41.15750 | -8.85344 | 18059 ft | 422 kts | 160° |
| 2026-05-05 20:57 | 41.13010 | -8.83898 | 18640 ft | 425 kts | 161° |
| 2026-05-05 20:57 | 41.10247 | -8.82461 | 19175 ft | 429 kts | 161° |
| 2026-05-05 20:58 | 41.07490 | -8.81037 | 19699 ft | 432 kts | 162° |
| 2026-05-05 20:58 | 41.04641 | -8.79570 | 20213 ft | 435 kts | 162° |
| 2026-05-05 20:58 | 41.01850 | -8.78136 | 20715 ft | 438 kts | 162° |
| 2026-05-05 20:58 | 40.99003 | -8.76673 | 21248 ft | 441 kts | 162° |
| 2026-05-05 20:59 | 40.96133 | -8.75199 | 21743 ft | 445 kts | 162° |
| 2026-05-05 20:59 | 40.93236 | -8.73713 | 22139 ft | 447 kts | 162° |
| 2026-05-05 20:59 | 40.90332 | -8.72223 | 22535 ft | 449 kts | 162° |
| 2026-05-05 20:59 | 40.87402 | -8.70721 | 22936 ft | 453 kts | 163° |
| 2026-05-05 21:00 | 40.84460 | -8.69216 | 23070 ft | 454 kts | 163° |
| 2026-05-05 21:00 | 40.81522 | -8.67711 | 23091 ft | 453 kts | 163° |
| 2026-05-05 21:00 | 40.78588 | -8.66210 | 23089 ft | 452 kts | 163° |
| 2026-05-05 21:00 | 40.75657 | -8.64713 | 23094 ft | 452 kts | 163° |
| 2026-05-05 21:01 | 40.72730 | -8.63220 | 23094 ft | 451 kts | 163° |
| 2026-05-05 21:01 | 40.69773 | -8.61864 | 23094 ft | 448 kts | 170° |
| 2026-05-05 21:01 | 40.66741 | -8.61081 | 23109 ft | 443 kts | 177° |
| 2026-05-05 21:01 | 40.63728 | -8.60643 | 23101 ft | 441 kts | 180° |
| 2026-05-05 21:02 | 40.60668 | -8.60331 | 23097 ft | 440 kts | 181° |
| 2026-05-05 21:02 | 40.57615 | -8.60043 | 23089 ft | 440 kts | 180° |
| 2026-05-05 21:02 | 40.54564 | -8.59737 | 23100 ft | 439 kts | 180° |
| 2026-05-05 21:02 | 40.51532 | -8.59406 | 23102 ft | 439 kts | 179° |
| 2026-05-05 21:03 | 40.48491 | -8.59038 | 23101 ft | 439 kts | 179° |
| 2026-05-05 21:03 | 40.45454 | -8.58658 | 23097 ft | 439 kts | 179° |
| 2026-05-05 21:03 | 40.42412 | -8.58278 | 23099 ft | 439 kts | 179° |
| 2026-05-05 21:03 | 40.39335 | -8.57902 | 23103 ft | 453 kts | 179° |
| 2026-05-05 21:04 | 40.36134 | -8.57521 | 23103 ft | 470 kts | 179° |
| 2026-05-05 21:04 | 40.32826 | -8.57131 | 23105 ft | 487 kts | 179° |
| 2026-05-05 21:04 | 40.29414 | -8.56725 | 23101 ft | 495 kts | 179° |
| 2026-05-05 21:04 | 40.26025 | -8.56317 | 23101 ft | 497 kts | 179° |
| 2026-05-05 21:05 | 40.22588 | -8.55901 | 23100 ft | 497 kts | 179° |
| 2026-05-05 21:05 | 40.19145 | -8.55485 | 23100 ft | 497 kts | 179° |
| 2026-05-05 21:05 | 40.15694 | -8.55072 | 23085 ft | 497 kts | 178° |
| 2026-05-05 21:05 | 40.12261 | -8.54662 | 23095 ft | 496 kts | 179° |
| 2026-05-05 21:06 | 40.08827 | -8.54253 | 23102 ft | 496 kts | 179° |
| 2026-05-05 21:06 | 40.05390 | -8.53846 | 23100 ft | 495 kts | 179° |
| 2026-05-05 21:06 | 40.01958 | -8.53476 | 23099 ft | 495 kts | 179° |
| 2026-05-05 21:06 | 39.98518 | -8.53161 | 23099 ft | 495 kts | 180° |
| 2026-05-05 21:07 | 39.95091 | -8.52875 | 23098 ft | 494 kts | 180° |
| 2026-05-05 21:07 | 39.91660 | -8.52599 | 23088 ft | 494 kts | 180° |
| 2026-05-05 21:07 | 39.88221 | -8.52322 | 23097 ft | 494 kts | 180° |
| 2026-05-05 21:07 | 39.84795 | -8.52043 | 23095 ft | 494 kts | 180° |
| 2026-05-05 21:08 | 39.81363 | -8.51760 | 23104 ft | 494 kts | 180° |
| 2026-05-05 21:08 | 39.77940 | -8.51582 | 23092 ft | 491 kts | 185° |
| 2026-05-05 21:08 | 39.74574 | -8.52102 | 23094 ft | 484 kts | 197° |
| 2026-05-05 21:08 | 39.71412 | -8.53497 | 23080 ft | 477 kts | 209° |
| 2026-05-05 21:09 | 39.68595 | -8.55605 | 23099 ft | 472 kts | 217° |
| 2026-05-05 21:09 | 39.65933 | -8.58079 | 23096 ft | 471 kts | 220° |
| 2026-05-05 21:09 | 39.63301 | -8.60616 | 23091 ft | 471 kts | 220° |
| 2026-05-05 21:09 | 39.60639 | -8.63099 | 23096 ft | 472 kts | 218° |
| 2026-05-05 21:10 | 39.57927 | -8.65513 | 23095 ft | 473 kts | 217° |
| 2026-05-05 21:10 | 39.55183 | -8.67861 | 23095 ft | 473 kts | 217° |
| 2026-05-05 21:10 | 39.52417 | -8.70172 | 23094 ft | 473 kts | 216° |
| 2026-05-05 21:10 | 39.49641 | -8.72463 | 23087 ft | 473 kts | 216° |
| 2026-05-05 21:11 | 39.46874 | -8.74736 | 23085 ft | 474 kts | 215° |
| 2026-05-05 21:11 | 39.44096 | -8.77016 | 23092 ft | 473 kts | 215° |
| 2026-05-05 21:11 | 39.41352 | -8.79268 | 23097 ft | 473 kts | 215° |
| 2026-05-05 21:11 | 39.38572 | -8.81550 | 23096 ft | 473 kts | 215° |
| 2026-05-05 21:12 | 39.35796 | -8.83829 | 23097 ft | 473 kts | 215° |
| 2026-05-05 21:12 | 39.33016 | -8.86110 | 23095 ft | 473 kts | 215° |
| 2026-05-05 21:12 | 39.30238 | -8.88389 | 23095 ft | 473 kts | 215° |
| 2026-05-05 21:12 | 39.27482 | -8.90645 | 23092 ft | 462 kts | 215° |
| 2026-05-05 21:13 | 39.24779 | -8.92855 | 23091 ft | 459 kts | 215° |
| 2026-05-05 21:13 | 39.22085 | -8.95059 | 23088 ft | 458 kts | 215° |
| 2026-05-05 21:13 | 39.19382 | -8.97269 | 22325 ft | 457 kts | 215° |
| 2026-05-05 21:13 | 39.16713 | -8.99447 | 21578 ft | 453 kts | 215° |
| 2026-05-05 21:14 | 39.14095 | -9.01582 | 20929 ft | 450 kts | 215° |
| 2026-05-05 21:14 | 39.11458 | -9.03730 | 20297 ft | 447 kts | 215° |
| 2026-05-05 21:14 | 39.08838 | -9.05863 | 19684 ft | 444 kts | 215° |
| 2026-05-05 21:14 | 39.06236 | -9.07979 | 19056 ft | 442 kts | 215° |
| 2026-05-05 21:15 | 39.03637 | -9.10087 | 18448 ft | 439 kts | 215° |
| 2026-05-05 21:15 | 39.01054 | -9.12172 | 17763 ft | 436 kts | 215° |
| 2026-05-05 21:15 | 38.98498 | -9.14233 | 17105 ft | 433 kts | 215° |
| 2026-05-05 21:15 | 38.95957 | -9.16284 | 16525 ft | 429 kts | 215° |
| 2026-05-05 21:16 | 38.93448 | -9.18309 | 15572 ft | 424 kts | 215° |
| 2026-05-05 21:16 | 38.90972 | -9.20310 | 14633 ft | 419 kts | 215° |
| 2026-05-05 21:16 | 38.88514 | -9.22296 | 13707 ft | 414 kts | 215° |
| 2026-05-05 21:16 | 38.86089 | -9.24255 | 12726 ft | 410 kts | 214° |
| 2026-05-05 21:17 | 38.83691 | -9.26192 | 11805 ft | 404 kts | 214° |
| 2026-05-05 21:17 | 38.81334 | -9.28093 | 11077 ft | 395 kts | 214° |
| 2026-05-05 21:17 | 38.79071 | -9.29914 | 10420 ft | 385 kts | 215° |
| 2026-05-05 21:17 | 38.76817 | -9.31729 | 9732 ft | 378 kts | 214° |
| 2026-05-05 21:18 | 38.74656 | -9.33465 | 9610 ft | 355 kts | 214° |
| 2026-05-05 21:18 | 38.72617 | -9.35100 | 9465 ft | 337 kts | 214° |
| 2026-05-05 21:18 | 38.70685 | -9.36651 | 9324 ft | 320 kts | 214° |
| 2026-05-05 21:18 | 38.68840 | -9.38132 | 9184 ft | 305 kts | 214° |
| 2026-05-05 21:19 | 38.67117 | -9.39512 | 8871 ft | 283 kts | 215° |
| 2026-05-05 21:19 | 38.65460 | -9.40842 | 8024 ft | 281 kts | 214° |
| 2026-05-05 21:19 | 38.63813 | -9.42167 | 7219 ft | 278 kts | 215° |
| 2026-05-05 21:19 | 38.62198 | -9.43466 | 6438 ft | 277 kts | 214° |
| 2026-05-05 21:20 | 38.60474 | -9.44540 | 5602 ft | 277 kts | 195° |
| 2026-05-05 21:20 | 38.58575 | -9.44555 | 5037 ft | 273 kts | 165° |
| 2026-05-05 21:20 | 38.56890 | -9.43440 | 4665 ft | 274 kts | 136° |
| 2026-05-05 21:20 | 38.55807 | -9.41504 | 4274 ft | 267 kts | 108° |
| 2026-05-05 21:21 | 38.55579 | -9.39258 | 4012 ft | 243 kts | 77° |
| 2026-05-05 21:21 | 38.55991 | -9.37272 | 3981 ft | 232 kts | 67° |
| 2026-05-05 21:21 | 38.56512 | -9.35323 | 3991 ft | 233 kts | 67° |
| 2026-05-05 21:21 | 38.57018 | -9.33346 | 3989 ft | 234 kts | 68° |
| 2026-05-05 21:22 | 38.57496 | -9.31367 | 3982 ft | 233 kts | 69° |
| 2026-05-05 21:22 | 38.57954 | -9.29383 | 3980 ft | 232 kts | 69° |
| 2026-05-05 21:22 | 38.58369 | -9.27499 | 3971 ft | 205 kts | 70° |
| 2026-05-05 21:22 | 38.58743 | -9.25767 | 3971 ft | 198 kts | 69° |
| 2026-05-05 21:23 | 38.59322 | -9.24249 | 3950 ft | 189 kts | 44° |
| 2026-05-05 21:23 | 38.60385 | -9.23323 | 3858 ft | 186 kts | 24° |
| 2026-05-05 21:23 | 38.61504 | -9.22588 | 3598 ft | 170 kts | 24° |
| 2026-05-05 21:23 | 38.62512 | -9.21957 | 3352 ft | 157 kts | 22° |
| 2026-05-05 21:24 | 38.63498 | -9.21412 | 3165 ft | 154 kts | 20° |
| 2026-05-05 21:24 | 38.64488 | -9.20889 | 2959 ft | 154 kts | 19° |
| 2026-05-05 21:24 | 38.65473 | -9.20365 | 2786 ft | 153 kts | 19° |
| 2026-05-05 21:24 | 38.66448 | -9.19843 | 2522 ft | 151 kts | 20° |
| 2026-05-05 21:25 | 38.67414 | -9.19335 | 2311 ft | 149 kts | 19° |
| 2026-05-05 21:25 | 38.68377 | -9.18827 | 2108 ft | 151 kts | 20° |
| 2026-05-05 21:25 | 38.69329 | -9.18276 | 1947 ft | 150 kts | 19° |
| 2026-05-05 21:25 | 38.70290 | -9.17750 | 1773 ft | 151 kts | 19° |
| 2026-05-05 21:26 | 38.71243 | -9.17221 | 1640 ft | 150 kts | 21° |
| 2026-05-05 21:26 | 38.72213 | -9.16702 | 1439 ft | 151 kts | 18° |
| 2026-05-05 21:26 | 38.73182 | -9.16201 | 1220 ft | 149 kts | 20° |
| 2026-05-05 21:26 | 38.74156 | -9.15685 | 953 ft | 152 kts | 17° |
| 2026-05-05 21:27 | 38.75147 | -9.15161 | 736 ft | 155 kts | 19° |
| 2026-05-05 21:27 | 38.76157 | -9.14638 | 466 ft | 159 kts | 20° |
| 2026-05-05 21:27 | 38.77148 | -9.14109 | 364 ft | 144 kts | 18° |
| 2026-05-05 21:27 | 38.77924 | -9.13705 | 375 ft | 98 kts | 22° |
| 2026-05-05 21:28 | 38.78427 | -9.13432 | 372 ft | 48 kts | 22° |
| 2026-05-05 21:28 | 38.78538 | -9.13358 | 369 ft | 5 kts | 64° |
| 2026-05-05 21:28 | 38.78539 | -9.13303 | 368 ft | 8 kts | 103° |
| 2026-05-05 21:28 | 38.78510 | -9.13252 | 371 ft | 6 kts | 142° |
| 2026-05-05 21:29 | 38.78467 | -9.13230 | 368 ft | 7 kts | 162° |
| 2026-05-05 21:29 | 38.78422 | -9.13219 | 372 ft | 7 kts | 180° |
| 2026-05-05 21:29 | 38.78380 | -9.13235 | 369 ft | 6 kts | 201° |
| 2026-05-05 21:29 | 38.78347 | -9.13250 | 371 ft | 4 kts | 201° |
| 2026-05-05 21:30 | 38.78321 | -9.13264 | 369 ft | 4 kts | 201° |
| 2026-05-05 21:30 | 38.78292 | -9.13279 | 368 ft | 7 kts | 202° |
| 2026-05-05 21:30 | 38.78229 | -9.13312 | 367 ft | 12 kts | 203° |
| 2026-05-05 21:30 | 38.78151 | -9.13353 | 368 ft | 12 kts | 202° |
| 2026-05-05 21:31 | 38.78082 | -9.13390 | 367 ft | 10 kts | 202° |
| 2026-05-05 21:31 | 38.78017 | -9.13425 | 370 ft | 11 kts | 204° |
| 2026-05-05 21:31 | 38.77940 | -9.13468 | 370 ft | 13 kts | 203° |
| 2026-05-05 21:31 | 38.77849 | -9.13518 | 367 ft | 14 kts | 203° |
| 2026-05-05 21:32 | 38.77761 | -9.13563 | 367 ft | 13 kts | 202° |
| 2026-05-05 21:32 | 38.77684 | -9.13600 | 367 ft | 10 kts | 193° |
| 2026-05-05 21:32 | 38.77618 | -9.13590 | 368 ft | 10 kts | 167° |
| 2026-05-05 21:32 | 38.77541 | -9.13569 | 363 ft | 14 kts | 167° |
| 2026-05-05 21:33 | 38.77449 | -9.13543 | 360 ft | 13 kts | 167° |
| 2026-05-05 21:33 | 38.77358 | -9.13519 | 360 ft | 13 kts | 168° |
| 2026-05-05 21:33 | 38.77274 | -9.13497 | 360 ft | 11 kts | 167° |
| 2026-05-05 21:33 | 38.77201 | -9.13478 | 354 ft | 10 kts | 169° |
| 2026-05-05 21:34 | 38.77136 | -9.13462 | 357 ft | 9 kts | 170° |
| 2026-05-05 21:34 | 38.77110 | -9.13466 | 355 ft | 1 kts | 214° |
| 2026-05-05 21:34 | 38.77106 | -9.13477 | 363 ft | 4 kts | 235° |
| 2026-05-05 21:34 | 38.77081 | -9.13519 | 360 ft | 5 kts | 224° |
| 2026-05-05 21:35 | 38.77046 | -9.13526 | 360 ft | 7 kts | 174° |
| 2026-05-05 21:35 | 38.76989 | -9.13515 | 360 ft | 9 kts | 169° |
| 2026-05-05 21:35 | 38.76922 | -9.13498 | 355 ft | 11 kts | 168° |
| 2026-05-05 21:35 | 38.76859 | -9.13485 | 357 ft | 4 kts | 179° |
| 2026-05-05 21:36 | 38.76846 | -9.13497 | 358 ft | 3 kts | 219° |
| 2026-05-05 21:36 | 38.76834 | -9.13535 | 359 ft | 3 kts | 258° |
| 2026-05-05 21:36 | 38.76832 | -9.13547 | 360 ft | 1 kts | 258° |
| 2026-05-05 21:36 | 38.76829 | -9.13560 | 360 ft | 1 kts | 258° |
| 2026-05-05 21:37 | 38.76829 | -9.13566 | 361 ft | 1 kts | 259° |
| 2026-05-05 21:37 | 38.76828 | -9.13573 | 361 ft | 0 kts | 258° |